Time;durP1;ratioP1;P1;durP2;ratioP2;P2;SDS_P1;SDS_P2;PMS_P1;PMS_P2;Temp;Humidity;BMP_temperature;BMP_pressure;BME280_temperature;BME280_humidity;BME280_pressure;Samples;Min_cycle;Max_cycle;Signal;HPM_P1;HPM_P2
2023/06/11 00:00:02;;;;;;;10.95;7.22;;;21.30;75.10;;;;;;5054321;28;20029;-86
2023/06/11 00:02:32;;;;;;;10.40;6.93;;;21.30;75.20;;;;;;5071191;28;20043;-87
2023/06/11 00:04:59;;;;;;;12.85;7.80;;;21.30;75.20;;;;;;5054896;28;20032;-87
2023/06/11 00:07:27;;;;;;;12.23;7.53;;;21.30;75.50;;;;;;5054261;28;20532;-87
2023/06/11 00:09:53;;;;;;;11.25;7.10;;;21.30;76.10;;;;;;5071020;28;20098;-87
2023/06/11 00:12:19;;;;;;;11.02;7.28;;;21.30;76.50;;;;;;5070822;28;20036;-87
2023/06/11 00:14:44;;;;;;;12.05;7.10;;;21.30;76.50;;;;;;5071237;28;20090;-87
2023/06/11 00:17:11;;;;;;;9.65;6.93;;;21.30;77.10;;;;;;5070957;28;20076;-87
2023/06/11 00:19:40;;;;;;;10.73;6.78;;;21.30;77.30;;;;;;5070705;28;20075;-87
2023/06/11 00:22:06;;;;;;;11.38;7.03;;;21.30;77.60;;;;;;5070769;28;20032;-87
2023/06/11 00:24:32;;;;;;;9.63;6.72;;;21.20;78.00;;;;;;5054423;28;20040;-87
2023/06/11 00:27:01;;;;;;;12.07;7.35;;;21.20;78.20;;;;;;5054090;28;20409;-87
2023/06/11 00:29:27;;;;;;;10.38;7.20;;;21.20;78.20;;;;;;5054088;28;20040;-87
2023/06/11 00:31:53;;;;;;;12.05;6.70;;;21.20;78.80;;;;;;5070874;28;20063;-87
2023/06/11 00:34:19;;;;;;;10.90;6.78;;;21.20;78.90;;;;;;5070605;28;20036;-87
2023/06/11 00:36:45;;;;;;;10.30;6.63;;;21.20;78.80;;;;;;5054018;28;20075;-87
2023/06/11 00:39:11;;;;;;;9.75;6.50;;;21.20;78.60;;;;;;5070970;28;20044;-87
2023/06/11 00:41:38;;;;;;;11.40;6.80;;;21.10;78.50;;;;;;5070128;28;20029;-87
2023/06/11 00:44:05;;;;;;;11.75;7.10;;;21.10;78.60;;;;;;5070850;28;20036;-87
2023/06/11 00:46:31;;;;;;;11.82;7.32;;;21.10;78.90;;;;;;5054124;28;20123;-87
2023/06/11 00:48:58;;;;;;;10.27;7.00;;;21.10;79.10;;;;;;5053856;28;20136;-87
2023/06/11 00:51:25;;;;;;;9.50;6.50;;;21.10;79.00;;;;;;5053007;28;20153;-87
2023/06/11 00:53:52;;;;;;;9.98;6.53;;;21.10;79.20;;;;;;5054085;28;20054;-87
2023/06/11 00:56:19;;;;;;;10.68;6.88;;;21.10;79.30;;;;;;5070488;28;20410;-87
2023/06/11 00:58:46;;;;;;;12.10;6.38;;;21.10;79.80;;;;;;5070508;28;20037;-87
2023/06/11 01:01:19;;;;;;;13.23;6.93;;;21.10;79.80;;;;;;5053400;28;20052;-87
2023/06/11 01:03:46;;;;;;;9.50;6.65;;;21.00;79.90;;;;;;5070595;28;20044;-87
2023/06/11 01:06:18;;;;;;;10.00;6.53;;;21.00;79.90;;;;;;5070372;28;20043;-87
2023/06/11 01:08:47;;;;;;;11.68;6.85;;;21.00;80.00;;;;;;5053859;28;20037;-87
2023/06/11 01:11:21;;;;;;;9.10;6.40;;;21.00;80.10;;;;;;5070389;28;20040;-87
2023/06/11 01:13:47;;;;;;;10.45;6.90;;;20.90;80.40;;;;;;5053489;28;20037;-87
2023/06/11 01:16:20;;;;;;;11.13;6.50;;;20.90;80.70;;;;;;5070388;28;20072;-87
2023/06/11 01:18:53;;;;;;;;;;;20.90;80.80;;;;;;5054078;28;20072;-87
2023/06/11 01:21:21;;;;;;;11.82;7.25;;;20.80;80.40;;;;;;5069968;28;19923;-87
2023/06/11 01:24:06;;;;;;;9.98;6.90;;;20.80;81.30;;;;;;5070264;28;20042;-87
2023/06/11 01:27:00;;;;;;;10.73;6.95;;;20.80;81.20;;;;;;5070016;28;20203;-87
2023/06/11 01:29:28;;;;;;;11.82;7.10;;;20.70;81.50;;;;;;5053594;28;20131;-87
2023/06/11 01:31:54;;;;;;;12.27;7.43;;;20.70;81.90;;;;;;5070044;28;20100;-87
2023/06/11 01:34:20;;;;;;;10.15;7.00;;;20.70;81.90;;;;;;5070098;28;20161;-87
2023/06/11 01:36:45;;;;;;;10.70;7.32;;;20.70;82.00;;;;;;5070234;28;20049;-87
2023/06/11 01:39:12;;;;;;;10.95;6.88;;;20.70;82.40;;;;;;5070208;28;20040;-87
2023/06/11 01:41:38;;;;;;;9.68;6.60;;;20.60;82.60;;;;;;5069930;28;20477;-87
2023/06/11 01:44:03;;;;;;;9.60;7.00;;;20.60;82.50;;;;;;5070195;28;20040;-87
2023/06/11 01:46:29;;;;;;;11.02;7.20;;;20.60;83.00;;;;;;5053551;28;20044;-86
2023/06/11 01:48:56;;;;;;;10.75;7.35;;;20.50;83.10;;;;;;5070107;28;20033;-86
2023/06/11 01:51:21;;;;;;;11.50;7.53;;;20.50;83.30;;;;;;5069600;28;20047;-87
2023/06/11 01:53:47;;;;;;;10.63;7.13;;;20.50;83.60;;;;;;5070462;28;20402;-86
2023/06/11 01:56:13;;;;;;;10.85;7.25;;;20.40;84.60;;;;;;5073931;28;20125;-87
2023/06/11 01:58:38;;;;;;;11.65;7.10;;;20.40;84.40;;;;;;5073565;28;20462;-87
2023/06/11 02:01:04;;;;;;;13.32;7.25;;;20.40;84.40;;;;;;5073260;28;20033;-87
2023/06/11 02:03:30;;;;;;;9.88;6.95;;;20.30;84.70;;;;;;5057018;28;20371;-87
2023/06/11 02:05:55;;;;;;;10.68;7.20;;;20.30;85.20;;;;;;5073458;28;20123;-87
2023/06/11 02:08:21;;;;;;;9.90;6.95;;;20.30;85.40;;;;;;5073325;28;20188;-86
2023/06/11 02:10:46;;;;;;;10.25;7.15;;;20.30;85.70;;;;;;5073339;28;20040;-86
2023/06/11 02:13:12;;;;;;;10.60;7.15;;;20.30;86.10;;;;;;5073264;28;20094;-87
2023/06/11 02:15:38;;;;;;;9.93;7.60;;;20.20;86.30;;;;;;5056676;28;20047;-87
2023/06/11 02:18:04;;;;;;;12.30;7.65;;;20.20;86.70;;;;;;5056449;28;20407;-87
2023/06/11 02:20:29;;;;;;;9.38;7.03;;;20.10;87.30;;;;;;5072981;28;20036;-87
2023/06/11 02:22:55;;;;;;;10.00;7.28;;;20.10;87.80;;;;;;5073386;28;20105;-87
2023/06/11 02:25:21;;;;;;;12.05;8.05;;;20.10;88.00;;;;;;5073084;28;20570;-87
2023/06/11 02:27:50;;;;;;;10.63;7.78;;;20.00;88.40;;;;;;5056666;28;20032;-87
2023/06/11 02:30:15;;;;;;;11.02;7.55;;;20.00;88.50;;;;;;5055950;28;20094;-87
2023/06/11 02:32:41;;;;;;;12.82;8.05;;;20.00;88.40;;;;;;5056692;28;20465;-87
2023/06/11 02:35:07;;;;;;;9.98;7.60;;;20.00;88.90;;;;;;5072967;28;20494;-86
2023/06/11 02:37:33;;;;;;;12.38;7.63;;;19.90;89.30;;;;;;5072759;28;20066;-86
2023/06/11 02:39:59;;;;;;;9.75;7.47;;;19.90;89.60;;;;;;5072809;28;20065;-86
2023/06/11 02:42:24;;;;;;;10.30;7.78;;;19.90;90.00;;;;;;5056370;28;20412;-86
2023/06/11 02:44:50;;;;;;;10.90;8.00;;;19.90;90.10;;;;;;5056146;28;20036;-86
2023/06/11 02:47:15;;;;;;;11.32;7.65;;;19.90;90.30;;;;;;5056261;28;20045;-86
2023/06/11 02:49:41;;;;;;;11.02;7.72;;;19.90;90.40;;;;;;5072325;28;20052;-86
2023/06/11 02:52:06;;;;;;;11.45;8.20;;;19.80;90.80;;;;;;5072539;28;20032;-86
2023/06/11 02:54:32;;;;;;;11.98;8.05;;;19.80;90.80;;;;;;5072548;28;20044;-85
2023/06/11 02:56:58;;;;;;;12.23;8.35;;;19.80;91.00;;;;;;5055632;28;20123;-86
2023/06/11 02:59:23;;;;;;;10.65;7.68;;;19.80;91.10;;;;;;5055833;28;20032;-86
2023/06/11 03:01:49;;;;;;;11.15;7.82;;;19.70;91.40;;;;;;5072103;28;20032;-86
2023/06/11 03:04:15;;;;;;;10.82;8.00;;;19.70;91.50;;;;;;5072403;28;20090;-86
2023/06/11 03:06:40;;;;;;;11.45;8.13;;;19.70;91.80;;;;;;5071075;28;20093;-86
2023/06/11 03:09:06;;;;;;;10.57;7.65;;;19.70;91.90;;;;;;5055656;28;20040;-86
2023/06/11 03:11:31;;;;;;;12.57;8.40;;;19.70;91.80;;;;;;5071797;28;20045;-86
2023/06/11 03:13:57;;;;;;;10.25;8.00;;;19.70;92.20;;;;;;5072372;28;20046;-86
2023/06/11 03:16:22;;;;;;;11.85;8.68;;;19.70;92.10;;;;;;5072290;28;20036;-86
2023/06/11 03:18:48;;;;;;;12.07;8.65;;;19.60;92.10;;;;;;5055682;28;20394;-86
2023/06/11 03:21:14;;;;;;;11.60;8.50;;;19.60;92.30;;;;;;5071849;28;20529;-85
2023/06/11 03:23:39;;;;;;;13.18;9.23;;;19.60;92.80;;;;;;5072047;28;20106;-86
2023/06/11 03:26:05;;;;;;;10.45;8.40;;;19.60;93.00;;;;;;5071850;28;20036;-85
2023/06/11 03:28:30;;;;;;;11.45;8.77;;;19.60;93.00;;;;;;5071995;28;20042;-86
2023/06/11 03:30:56;;;;;;;10.32;8.80;;;19.50;93.50;;;;;;5055072;28;20382;-86
2023/06/11 03:33:22;;;;;;;11.45;9.15;;;19.50;93.70;;;;;;5071869;28;20536;-86
2023/06/11 03:35:47;;;;;;;11.07;8.85;;;19.50;94.00;;;;;;5071757;28;20041;-86
2023/06/11 03:38:13;;;;;;;10.63;8.60;;;19.50;94.20;;;;;;5055065;28;20045;-86
2023/06/11 03:40:39;;;;;;;12.23;8.20;;;19.50;94.20;;;;;;5071359;28;20039;-86
2023/06/11 03:43:04;;;;;;;11.85;8.35;;;19.50;94.30;;;;;;5071550;28;20044;-86
2023/06/11 03:45:30;;;;;;;11.70;8.68;;;19.50;94.50;;;;;;5071825;28;20040;-86
2023/06/11 03:47:56;;;;;;;11.93;8.88;;;19.50;94.30;;;;;;5071472;28;20041;-86
2023/06/11 03:50:23;;;;;;;11.38;9.13;;;19.50;94.30;;;;;;5054347;28;20040;-86
2023/06/11 03:52:48;;;;;;;12.68;9.02;;;19.50;94.60;;;;;;5055061;28;20043;-86
2023/06/11 03:55:15;;;;;;;10.95;8.40;;;19.50;94.80;;;;;;5054953;28;20036;-86
2023/06/11 03:57:41;;;;;;;11.20;9.65;;;19.50;94.90;;;;;;5071477;28;20427;-86
2023/06/11 04:00:07;;;;;;;15.27;9.73;;;19.50;95.10;;;;;;5054210;28;20533;-86
2023/06/11 04:02:34;;;;;;;11.50;9.10;;;19.50;95.00;;;;;;5071297;28;20044;-86
2023/06/11 04:05:01;;;;;;;15.77;10.35;;;19.50;95.30;;;;;;5071369;28;20044;-86
2023/06/11 04:07:26;;;;;;;10.85;9.30;;;19.50;94.80;;;;;;5071469;28;20043;-86
2023/06/11 04:09:52;;;;;;;12.50;9.35;;;19.50;95.20;;;;;;5072005;28;20049;-86
2023/06/11 04:12:18;;;;;;;12.90;9.30;;;19.60;95.20;;;;;;5054524;28;20044;-86
2023/06/11 04:14:43;;;;;;;12.30;9.85;;;19.60;95.10;;;;;;5054260;28;20074;-86
2023/06/11 04:17:10;;;;;;;11.15;9.40;;;19.60;95.40;;;;;;5053864;28;20037;-86
2023/06/11 04:19:35;;;;;;;12.50;9.55;;;19.60;95.70;;;;;;5054150;28;20405;-86
2023/06/11 04:22:01;;;;;;;11.95;9.30;;;19.60;95.80;;;;;;5070793;28;20525;-86
2023/06/11 04:24:26;;;;;;;12.65;9.73;;;19.60;95.90;;;;;;5054411;28;20036;-86
2023/06/11 04:26:52;;;;;;;11.15;9.52;;;19.60;95.90;;;;;;5070786;28;20041;-86
2023/06/11 04:29:18;;;;;;;14.35;9.75;;;19.60;96.00;;;;;;5070832;28;20047;-86
2023/06/11 04:31:46;;;;;;;13.75;9.93;;;19.60;96.20;;;;;;5070674;28;20048;-86
2023/06/11 04:34:13;;;;;;;13.90;9.07;;;19.60;96.10;;;;;;5054291;28;20044;-86
2023/06/11 04:36:40;;;;;;;11.80;9.80;;;19.60;96.20;;;;;;5054042;28;20044;-86
2023/06/11 04:39:07;;;;;;;10.68;9.07;;;19.70;96.30;;;;;;5070913;28;20133;-86
2023/06/11 04:41:36;;;;;;;11.48;9.77;;;19.70;96.10;;;;;;5070302;28;20056;-86
2023/06/11 04:44:02;;;;;;;12.02;10.00;;;19.70;96.90;;;;;;5070519;28;20047;-86
2023/06/11 04:46:27;;;;;;;11.63;9.88;;;19.70;97.30;;;;;;5053963;28;20036;-86
2023/06/11 04:48:53;;;;;;;12.43;9.82;;;19.80;97.40;;;;;;5054060;28;20047;-86
2023/06/11 04:51:20;;;;;;;12.00;9.50;;;19.80;97.20;;;;;;5070257;28;20405;-86
2023/06/11 04:53:46;;;;;;;12.40;10.50;;;19.80;97.30;;;;;;5070554;28;20036;-86
2023/06/11 04:56:12;;;;;;;12.20;10.00;;;19.80;97.30;;;;;;5070581;28;20492;-86
2023/06/11 04:58:37;;;;;;;13.30;10.27;;;19.90;97.50;;;;;;5070338;28;20490;-86
2023/06/11 05:01:05;;;;;;;13.48;10.35;;;19.90;97.60;;;;;;5053624;28;20036;-86
2023/06/11 05:03:36;;;;;;;12.45;10.32;;;19.90;97.80;;;;;;5070658;28;20321;-86
2023/06/11 05:06:05;;;;;;;12.23;10.57;;;19.90;98.00;;;;;;5070315;28;20040;-86
2023/06/11 05:08:32;;;;;;;11.50;10.23;;;19.90;98.40;;;;;;5070445;28;20279;-86
2023/06/11 05:10:58;;;;;;;13.85;11.15;;;20.00;98.30;;;;;;5070254;28;20044;-86
2023/06/11 05:13:25;;;;;;;11.65;10.38;;;20.00;98.70;;;;;;5070383;28;20044;-86
2023/06/11 05:15:57;;;;;;;13.40;10.13;;;20.00;98.90;;;;;;5070148;28;20051;-86
2023/06/11 05:18:25;;;;;;;13.25;11.05;;;20.10;98.90;;;;;;5070123;28;20082;-86
2023/06/11 05:20:51;;;;;;;12.05;10.73;;;20.10;99.80;;;;;;5069875;28;20044;-86
2023/06/11 05:23:18;;;;;;;13.35;10.15;;;20.20;99.70;;;;;;5070263;28;20032;-86
2023/06/11 05:25:47;;;;;;;14.05;10.80;;;20.20;99.40;;;;;;5070063;28;20123;-86
2023/06/11 05:28:16;;;;;;;12.57;10.48;;;20.30;99.30;;;;;;5070144;28;20098;-86
2023/06/11 05:30:45;;;;;;;12.05;10.68;;;20.30;98.90;;;;;;5073637;28;20044;-86
2023/06/11 05:33:11;;;;;;;14.32;10.15;;;20.40;98.70;;;;;;5074440;28;20079;-86
2023/06/11 05:35:38;;;;;;;12.52;10.90;;;20.40;99.50;;;;;;5057463;28;20498;-86
2023/06/11 05:38:06;;;;;;;14.30;10.52;;;20.50;99.00;;;;;;5074009;28;20032;-86
2023/06/11 05:40:32;;;;;;;14.10;10.30;;;20.50;98.30;;;;;;5056951;28;20036;-86
2023/06/11 05:42:58;;;;;;;12.60;10.23;;;20.60;98.20;;;;;;5074999;28;20068;-86
2023/06/11 05:45:25;;;;;;;13.23;10.65;;;20.60;97.90;;;;;;5070795;28;20066;-87
2023/06/11 05:47:51;;;;;;;12.15;10.43;;;20.70;97.80;;;;;;5055929;28;20094;-86
2023/06/11 05:50:17;;;;;;;12.50;10.13;;;20.70;98.00;;;;;;5072597;28;20444;-86
2023/06/11 05:52:43;;;;;;;11.73;10.10;;;20.80;97.90;;;;;;5056220;28;20048;-86
2023/06/11 05:55:08;;;;;;;13.13;10.35;;;20.90;98.20;;;;;;5056308;28;20094;-86
2023/06/11 05:57:34;;;;;;;14.25;10.43;;;20.90;97.90;;;;;;5072785;28;20044;-87
2023/06/11 06:00:00;;;;;;;13.50;9.93;;;21.00;97.60;;;;;;5072542;28;20413;-86
2023/06/11 06:02:26;;;;;;;11.48;9.32;;;21.10;97.80;;;;;;5073561;28;20048;-87
2023/06/11 06:04:51;;;;;;;11.93;9.20;;;21.10;97.60;;;;;;5073373;28;20043;-87
2023/06/11 06:07:17;;;;;;;12.68;9.75;;;21.20;97.30;;;;;;5073044;28;20459;-87
2023/06/11 06:09:43;;;;;;;11.30;9.20;;;21.30;96.90;;;;;;5055897;28;20044;-87
2023/06/11 06:12:10;;;;;;;11.73;9.85;;;21.30;96.30;;;;;;5055950;28;20124;-87
2023/06/11 06:14:36;;;;;;;12.02;9.60;;;21.40;95.60;;;;;;5073065;28;20033;-87
2023/06/11 06:17:01;;;;;;;11.52;9.55;;;21.50;95.80;;;;;;5072584;28;20033;-87
2023/06/11 06:19:27;;;;;;;11.27;8.90;;;21.50;95.30;;;;;;5072465;28;20035;-86
2023/06/11 06:21:53;;;;;;;11.93;9.35;;;21.60;95.20;;;;;;5055927;28;20383;-87
2023/06/11 06:24:18;;;;;;;13.25;10.23;;;21.70;94.40;;;;;;5072962;28;20032;-87
2023/06/11 06:26:44;;;;;;;11.68;10.05;;;21.70;94.80;;;;;;5056090;28;20426;-87
2023/06/11 06:29:12;;;;;;;11.73;9.60;;;21.80;93.90;;;;;;5073001;28;20040;-87
2023/06/11 06:31:40;;;;;;;12.63;9.90;;;21.90;94.10;;;;;;5072245;28;20494;-87
2023/06/11 06:34:07;;;;;;;12.15;9.40;;;21.90;93.40;;;;;;5089511;28;20077;-87
2023/06/11 06:36:37;;;;;;;12.80;9.13;;;22.00;93.20;;;;;;5072296;28;20047;-87
2023/06/11 06:39:04;;;;;;;13.32;10.18;;;22.10;93.30;;;;;;5072029;28;20032;-87
2023/06/11 06:41:30;;;;;;;11.80;10.05;;;22.10;92.60;;;;;;5054920;28;20041;-87
2023/06/11 06:43:55;;;;;;;11.18;9.75;;;22.20;92.50;;;;;;5056016;28;20127;-87
2023/06/11 06:46:21;;;;;;;11.32;9.43;;;22.30;92.00;;;;;;5089319;28;20047;-87
2023/06/11 06:48:47;;;;;;;11.32;10.10;;;22.30;92.40;;;;;;5072164;28;20044;-87
2023/06/11 06:51:12;;;;;;;11.00;9.50;;;22.40;92.10;;;;;;5072240;28;20097;-87
2023/06/11 06:53:38;;;;;;;10.68;9.57;;;22.50;91.60;;;;;;5072289;28;20403;-87
2023/06/11 06:56:05;;;;;;;12.02;9.40;;;22.60;91.60;;;;;;5055469;28;20040;-86
2023/06/11 06:58:32;;;;;;;11.65;8.85;;;22.60;91.50;;;;;;5072019;28;20102;-87
2023/06/11 07:00:58;;;;;;;10.63;8.93;;;22.70;91.30;;;;;;5071650;28;20077;-87
2023/06/11 07:03:24;;;;;;;10.85;8.60;;;22.80;91.30;;;;;;5055256;28;20123;-87
2023/06/11 07:05:50;;;;;;;11.68;9.05;;;22.90;90.60;;;;;;5071965;28;20115;-87
2023/06/11 07:08:15;;;;;;;15.93;9.30;;;22.90;90.50;;;;;;5071741;28;20040;-86
2023/06/11 07:10:47;;;;;;;14.25;8.63;;;23.00;90.70;;;;;;5054701;28;20036;-87
2023/06/11 07:13:12;;;;;;;13.10;9.35;;;23.10;90.30;;;;;;5071139;28;20056;-87
2023/06/11 07:15:38;;;;;;;11.20;8.60;;;23.20;90.10;;;;;;5071730;28;20036;-87
2023/06/11 07:18:04;;;;;;;11.70;8.98;;;23.20;88.40;;;;;;5071524;28;20486;-87
2023/06/11 07:20:30;;;;;;;11.88;8.85;;;23.30;89.40;;;;;;5054480;28;20029;-87
2023/06/11 07:22:55;;;;;;;11.02;8.80;;;23.40;87.60;;;;;;5054767;28;20040;-87
2023/06/11 07:25:21;;;;;;;10.80;9.00;;;23.50;87.60;;;;;;5071778;28;20038;-87
2023/06/11 07:27:46;;;;;;;14.10;8.60;;;23.50;86.90;;;;;;5055370;28;20127;-87
2023/06/11 07:30:12;;;;;;;13.13;9.20;;;23.60;87.10;;;;;;5071270;28;20505;-87
2023/06/11 07:32:38;;;;;;;11.82;8.88;;;23.70;86.30;;;;;;5087684;28;20037;-87
2023/06/11 07:35:05;;;;;;;12.10;8.63;;;23.70;85.60;;;;;;5071471;28;20064;-87
2023/06/11 07:37:31;;;;;;;12.68;8.95;;;23.80;85.40;;;;;;5054374;28;20517;-87
2023/06/11 07:39:57;;;;;;;11.60;8.25;;;23.90;84.80;;;;;;5070716;28;20075;-87
2023/06/11 07:42:23;;;;;;;11.68;8.57;;;24.00;84.90;;;;;;5070732;28;20482;-88
2023/06/11 07:44:48;;;;;;;10.88;8.73;;;24.10;83.80;;;;;;5054394;28;20040;-88
2023/06/11 07:47:14;;;;;;;10.68;8.48;;;24.10;84.10;;;;;;5071350;28;20079;-88
2023/06/11 07:49:40;;;;;;;12.85;8.60;;;24.20;84.40;;;;;;5053979;28;20123;-88
2023/06/11 07:52:06;;;;;;;11.55;7.95;;;24.30;85.80;;;;;;5070131;28;20037;-88
2023/06/11 07:54:32;;;;;;;10.48;8.00;;;24.40;84.10;;;;;;5054853;28;20429;-88
2023/06/11 07:56:58;;;;;;;13.10;8.10;;;24.50;82.50;;;;;;5070835;28;20105;-88
2023/06/11 07:59:24;;;;;;;12.15;8.32;;;24.60;82.60;;;;;;5070892;28;20043;-87
2023/06/11 08:01:49;;;;;;;11.77;8.32;;;24.70;82.50;;;;;;5053893;28;20123;-88
2023/06/11 08:04:15;;;;;;;10.88;8.48;;;24.70;82.50;;;;;;5054614;28;20508;-88
2023/06/11 08:06:40;;;;;;;11.05;8.63;;;24.80;81.10;;;;;;5054080;28;20040;-88
2023/06/11 08:09:08;;;;;;;20.23;8.52;;;24.90;80.80;;;;;;5053139;28;20041;-88
2023/06/11 08:11:33;;;;;;;10.05;7.93;;;25.00;80.30;;;;;;5070456;28;20072;-88
2023/06/11 08:13:59;;;;;;;11.15;7.75;;;25.00;79.60;;;;;;5070611;28;20068;-87
2023/06/11 08:16:25;;;;;;;11.00;8.43;;;25.10;79.50;;;;;;5068217;28;20086;-88
2023/06/11 08:18:51;;;;;;;11.13;7.40;;;25.20;78.60;;;;;;5054322;28;20119;-88
2023/06/11 08:21:17;;;;;;;10.40;7.43;;;25.30;78.70;;;;;;5070826;28;20078;-88
2023/06/11 08:23:42;;;;;;;11.05;7.57;;;25.30;78.90;;;;;;5070620;28;20383;-88
2023/06/11 08:26:09;;;;;;;12.52;7.80;;;25.40;77.00;;;;;;5071148;28;20485;-88
2023/06/11 08:28:36;;;;;;;10.48;7.78;;;25.50;77.90;;;;;;5054212;28;20037;-88
2023/06/11 08:31:01;;;;;;;11.27;7.45;;;25.60;77.90;;;;;;5070902;28;20531;-88
2023/06/11 08:33:27;;;;;;;11.13;7.60;;;25.70;78.30;;;;;;5070765;28;20517;-88
2023/06/11 08:35:53;;;;;;;9.52;7.50;;;25.70;76.70;;;;;;5053821;28;20041;-88
2023/06/11 08:38:19;;;;;;;8.93;7.25;;;25.80;76.20;;;;;;5054286;28;20101;-88
2023/06/11 08:40:45;;;;;;;10.93;6.93;;;25.90;75.30;;;;;;5054040;28;20502;-87
2023/06/11 08:43:11;;;;;;;11.85;7.50;;;25.90;75.70;;;;;;5054186;28;20501;-88
2023/06/11 08:45:39;;;;;;;12.90;7.63;;;26.00;75.50;;;;;;5053974;28;20048;-88
2023/06/11 08:48:08;;;;;;;9.90;7.10;;;26.10;75.40;;;;;;5070755;28;20486;-88
2023/06/11 08:50:35;;;;;;;10.85;6.65;;;26.20;74.20;;;;;;5053388;28;20047;-88
2023/06/11 08:53:02;;;;;;;10.15;6.72;;;26.30;73.60;;;;;;5070650;28;20051;-88
2023/06/11 08:55:29;;;;;;;9.07;6.50;;;26.30;73.40;;;;;;5053780;28;20086;-88
2023/06/11 08:57:55;;;;;;;8.70;6.55;;;26.40;72.00;;;;;;5054134;28;20040;-88
2023/06/11 09:00:21;;;;;;;10.55;7.32;;;26.40;72.50;;;;;;5053707;28;20405;-88
2023/06/11 09:02:47;;;;;;;10.85;6.78;;;26.50;72.90;;;;;;5070509;28;20044;-88
2023/06/11 09:05:12;;;;;;;11.85;7.43;;;26.60;72.60;;;;;;5070746;28;20119;-88
2023/06/11 09:07:50;;;;;;;9.77;6.82;;;26.70;72.40;;;;;;5070820;28;20504;-88
2023/06/11 09:10:16;;;;;;;12.05;6.85;;;26.80;73.50;;;;;;5070381;28;20040;-88
2023/06/11 09:12:42;;;;;;;10.10;6.93;;;26.90;72.80;;;;;;5071920;28;20036;-88
2023/06/11 09:15:09;;;;;;;10.25;6.80;;;27.00;72.00;;;;;;5071581;28;20044;-88
2023/06/11 09:17:43;;;;;;;10.40;6.32;;;27.10;71.10;;;;;;5051491;28;20059;-87
2023/06/11 09:20:13;;;;;;;9.10;6.20;;;27.10;70.30;;;;;;5069694;28;20154;-88
2023/06/11 09:22:41;;;;;;;9.95;6.50;;;27.20;70.00;;;;;;5069894;28;20406;-87
2023/06/11 09:25:16;;;;;;;11.50;6.40;;;27.20;70.60;;;;;;5071031;28;20157;-87
2023/06/11 09:27:44;;;;;;;9.98;6.28;;;27.30;68.80;;;;;;5070181;28;20067;-88
2023/06/11 09:30:12;;;;;;;9.98;6.55;;;27.30;68.60;;;;;;5069435;28;20127;-87
2023/06/11 09:32:42;;;;;;;9.25;6.60;;;27.40;67.20;;;;;;5069091;28;20040;-87
2023/06/11 09:35:09;;;;;;;9.98;6.45;;;27.40;66.10;;;;;;5053474;28;20044;-87
2023/06/11 09:37:44;;;;;;;8.70;6.10;;;27.50;67.20;;;;;;5069012;28;20052;-87
2023/06/11 09:40:17;;;;;;;9.25;6.20;;;27.60;66.30;;;;;;5052608;28;20033;-87
2023/06/11 09:42:47;;;;;;;9.10;5.68;;;27.60;65.20;;;;;;5052523;28;20045;-88
2023/06/11 09:45:16;;;;;;;8.63;6.03;;;27.70;65.60;;;;;;5053044;28;20032;-87
2023/06/11 09:47:46;;;;;;;9.75;6.35;;;27.70;64.80;;;;;;5052986;28;20062;-87
2023/06/11 09:50:17;;;;;;;9.13;6.05;;;27.70;65.50;;;;;;5069104;28;20094;-88
2023/06/11 09:52:45;;;;;;;9.35;6.25;;;27.80;64.90;;;;;;5069596;28;20049;-87
2023/06/11 09:55:11;;;;;;;8.98;6.38;;;27.80;64.50;;;;;;5052599;28;20405;-88
2023/06/11 09:57:38;;;;;;;9.45;6.50;;;27.90;64.10;;;;;;5052597;28;20044;-88
2023/06/11 10:00:15;;;;;;;7.75;5.43;;;28.00;64.10;;;;;;5052219;28;20037;-88
2023/06/11 10:02:42;;;;;;;9.00;5.22;;;28.10;63.10;;;;;;5069729;28;20076;-87
2023/06/11 10:05:10;;;;;;;10.00;5.63;;;28.10;63.20;;;;;;5070646;28;20063;-87
2023/06/11 10:07:42;;;;;;;8.90;6.07;;;28.20;62.30;;;;;;5069238;28;20040;-88
2023/06/11 10:10:09;;;;;;;;;;;28.30;61.40;;;;;;5069429;28;20052;-87
2023/06/11 10:12:35;;;;;;;10.55;5.10;;;28.30;60.60;;;;;;5051965;28;19916;-87
2023/06/11 10:15:04;;;;;;;9.80;6.18;;;28.30;60.40;;;;;;5070424;28;20052;-88
2023/06/11 10:17:30;;;;;;;10.38;5.63;;;28.40;59.40;;;;;;5072961;28;20462;-87
2023/06/11 10:19:56;;;;;;;9.50;5.60;;;28.40;59.20;;;;;;5055688;28;20082;-87
2023/06/11 10:22:31;;;;;;;9.60;5.15;;;28.40;59.40;;;;;;5072639;28;20036;-87
2023/06/11 10:25:04;;;;;;;9.48;5.50;;;28.50;60.00;;;;;;5072735;28;20452;-87
2023/06/11 10:27:37;;;;;;;10.95;5.50;;;28.60;60.90;;;;;;5056170;28;20037;-88
2023/06/11 10:30:05;;;;;;;9.15;5.38;;;28.70;60.80;;;;;;5072313;28;20178;-88
2023/06/11 10:32:31;;;;;;;9.23;5.43;;;28.80;59.60;;;;;;5072627;28;20494;-87
2023/06/11 10:35:06;;;;;;;9.45;5.78;;;28.90;58.20;;;;;;5073918;28;20061;-88
2023/06/11 10:37:36;;;;;;;12.10;5.85;;;29.00;59.80;;;;;;5072406;28;20036;-88
2023/06/11 10:40:03;;;;;;;9.38;5.93;;;29.10;60.20;;;;;;5073764;28;20518;-87
2023/06/11 10:42:39;;;;;;;10.40;5.80;;;29.20;59.70;;;;;;5072510;28;20040;-87
2023/06/11 10:45:12;;;;;;;8.65;5.40;;;29.30;59.00;;;;;;5055467;28;20035;-87
2023/06/11 10:47:46;;;;;;;10.82;5.75;;;29.30;57.90;;;;;;5072704;28;20047;-87
2023/06/11 10:50:14;;;;;;;9.98;5.75;;;29.40;57.80;;;;;;5055250;28;20040;-88
2023/06/11 10:52:55;;;;;;;8.90;5.70;;;29.40;58.30;;;;;;5055648;28;20125;-87
2023/06/11 10:55:26;;;;;;;9.18;5.80;;;29.60;57.20;;;;;;5055444;28;20040;-87
2023/06/11 10:57:52;;;;;;;10.27;5.88;;;29.60;56.60;;;;;;5055663;28;20496;-88
2023/06/11 11:00:18;;;;;;;9.43;5.82;;;29.70;56.60;;;;;;5071753;28;20043;-87
2023/06/11 11:02:46;;;;;;;8.98;5.65;;;29.70;57.20;;;;;;5055273;28;20041;-87
2023/06/11 11:05:12;;;;;;;9.35;5.47;;;29.80;55.90;;;;;;5055250;28;20040;-87
2023/06/11 11:07:37;;;;;;;10.00;5.28;;;29.90;57.30;;;;;;5055187;28;20036;-87
2023/06/11 11:10:05;;;;;;;9.82;5.75;;;30.00;57.70;;;;;;5054808;28;20131;-88
2023/06/11 11:12:39;;;;;;;8.95;6.03;;;30.10;56.30;;;;;;5055176;28;20051;-87
2023/06/11 11:15:06;;;;;;;9.38;5.90;;;30.20;54.20;;;;;;5055781;28;20090;-87
2023/06/11 11:17:33;;;;;;;9.65;5.70;;;30.20;54.90;;;;;;5073026;28;20037;-88
2023/06/11 11:19:59;;;;;;;9.18;5.93;;;30.30;56.10;;;;;;5071690;28;20040;-87
2023/06/11 11:22:29;;;;;;;9.68;6.07;;;30.40;54.50;;;;;;5071637;28;20401;-88
2023/06/11 11:25:05;;;;;;;9.10;5.55;;;30.40;55.20;;;;;;5073044;28;20098;-87
2023/06/11 11:27:31;;;;;;;12.27;5.75;;;30.50;53.80;;;;;;5070112;28;20502;-87
2023/06/11 11:29:59;;;;;;;7.82;5.50;;;30.50;53.90;;;;;;5044767;28;20037;-87
2023/06/11 11:32:31;;;;;;;9.40;5.53;;;30.60;53.60;;;;;;5052870;28;20036;-88
2023/06/11 11:34:58;;;;;;;9.15;5.88;;;30.80;54.40;;;;;;5070859;28;20036;-88
2023/06/11 11:37:24;;;;;;;10.60;6.88;;;30.90;54.20;;;;;;5070882;28;20036;-87
2023/06/11 11:39:52;;;;;;;9.88;6.20;;;30.90;53.50;;;;;;5054030;28;20047;-87
2023/06/11 11:42:18;;;;;;;10.20;6.03;;;31.00;53.50;;;;;;5054705;28;20036;-87
2023/06/11 11:44:43;;;;;;;8.95;5.60;;;31.00;52.60;;;;;;5053335;28;20060;-87
2023/06/11 11:47:10;;;;;;;11.40;6.03;;;31.00;52.70;;;;;;5071607;28;20052;-88
2023/06/11 11:49:37;;;;;;;7.82;5.20;;;31.00;53.80;;;;;;5072186;28;20047;-87
2023/06/11 11:52:05;;;;;;;8.95;5.97;;;30.90;52.90;;;;;;5073109;28;20033;-88
2023/06/11 11:54:31;;;;;;;10.32;6.28;;;30.90;53.20;;;;;;5071681;28;20119;-87
2023/06/11 11:57:03;;;;;;;9.55;5.90;;;30.90;53.10;;;;;;5072710;28;22015;-87
2023/06/11 11:59:31;;;;;;;8.77;6.10;;;31.00;52.70;;;;;;5054807;28;20150;-88
2023/06/11 12:02:00;;;;;;;11.57;6.47;;;31.10;53.40;;;;;;5072549;28;20521;-88
2023/06/11 12:04:40;;;;;;;10.30;5.45;;;31.20;52.20;;;;;;5071272;28;20047;-88
2023/06/11 12:07:07;;;;;;;10.43;5.88;;;31.30;52.20;;;;;;5071347;28;20493;-88
2023/06/11 12:09:38;;;;;;;9.02;5.47;;;31.40;51.80;;;;;;5054258;28;20607;-88
2023/06/11 12:12:05;;;;;;;9.15;5.38;;;31.50;52.80;;;;;;5071086;28;20041;-87
2023/06/11 12:14:31;;;;;;;9.15;5.68;;;31.60;51.50;;;;;;5071070;28;20051;-88
2023/06/11 12:16:57;;;;;;;10.05;5.95;;;31.60;51.60;;;;;;5054312;28;20036;-87
2023/06/11 12:19:23;;;;;;;12.60;6.00;;;31.70;50.10;;;;;;5071438;28;20028;-88
2023/06/11 12:21:48;;;;;;;8.63;5.50;;;31.80;50.50;;;;;;5069388;28;20555;-88
2023/06/11 12:24:17;;;;;;;11.45;5.70;;;31.90;51.40;;;;;;5070769;28;20142;-88
2023/06/11 12:26:49;;;;;;;9.60;5.43;;;32.00;50.20;;;;;;5071836;28;20490;-88
2023/06/11 12:29:15;;;;;;;9.38;5.93;;;32.10;49.30;;;;;;5070101;28;20040;-87
2023/06/11 12:31:41;;;;;;;9.05;5.45;;;32.10;48.40;;;;;;5070143;28;20072;-88
2023/06/11 12:34:10;;;;;;;10.77;5.50;;;32.10;49.10;;;;;;5069975;28;20072;-87
2023/06/11 12:36:36;;;;;;;8.75;5.72;;;32.10;48.60;;;;;;5053297;28;20504;-88